sensor_id;sensor_type;location;lat;lon;timestamp;pressure;altitude;pressure_sealevel;temperature;humidity
11011;BME280;5558;42.702;23.178;2023-05-20T00:00:12;94008.91;;;9.74;100.00
11011;BME280;5558;42.702;23.178;2023-05-20T00:02:39;94008.56;;;9.65;100.00
11011;BME280;5558;42.702;23.178;2023-05-20T00:05:06;94016.13;;;9.57;100.00
11011;BME280;5558;42.702;23.178;2023-05-20T00:07:33;94020.25;;;9.74;100.00
11011;BME280;5558;42.702;23.178;2023-05-20T00:10:00;94006.66;;;9.88;100.00
11011;BME280;5558;42.702;23.178;2023-05-20T00:12:28;94007.41;;;9.88;100.00
11011;BME280;5558;42.702;23.178;2023-05-20T00:14:55;94002.56;;;10.07;100.00
11011;BME280;5558;42.702;23.178;2023-05-20T00:17:21;93995.13;;;10.04;100.00
11011;BME280;5558;42.702;23.178;2023-05-20T00:19:50;93991.81;;;9.86;100.00
11011;BME280;5558;42.702;23.178;2023-05-20T00:22:16;93996.88;;;9.93;100.00
11011;BME280;5558;42.702;23.178;2023-05-20T00:24:43;93996.88;;;9.93;100.00
11011;BME280;5558;42.702;23.178;2023-05-20T00:27:10;93988.78;;;10.05;100.00
11011;BME280;5558;42.702;23.178;2023-05-20T00:29:38;93989.81;;;9.99;100.00
11011;BME280;5558;42.702;23.178;2023-05-20T00:32:05;93987.34;;;9.87;100.00
11011;BME280;5558;42.702;23.178;2023-05-20T00:34:32;93988.41;;;9.91;100.00
11011;BME280;5558;42.702;23.178;2023-05-20T00:36:59;93980.22;;;9.88;100.00
11011;BME280;5558;42.702;23.178;2023-05-20T00:39:26;93975.34;;;9.79;100.00
11011;BME280;5558;42.702;23.178;2023-05-20T00:41:54;93961.72;;;9.61;100.00
11011;BME280;5558;42.702;23.178;2023-05-20T00:44:24;93954.03;;;9.59;100.00
11011;BME280;5558;42.702;23.178;2023-05-20T00:46:53;93984.38;;;9.83;100.00
11011;BME280;5558;42.702;23.178;2023-05-20T00:49:20;93988.38;;;9.86;100.00
11011;BME280;5558;42.702;23.178;2023-05-20T00:51:48;93981.19;;;9.81;100.00
11011;BME280;5558;42.702;23.178;2023-05-20T00:54:15;93986.31;;;9.93;100.00
11011;BME280;5558;42.702;23.178;2023-05-20T00:56:42;93959.78;;;9.83;100.00
11011;BME280;5558;42.702;23.178;2023-05-20T00:59:09;93970.22;;;10.00;100.00
11011;BME280;5558;42.702;23.178;2023-05-20T01:01:36;93980.38;;;10.08;100.00
11011;BME280;5558;42.702;23.178;2023-05-20T01:04:04;93983.75;;;10.03;100.00
11011;BME280;5558;42.702;23.178;2023-05-20T01:06:31;93977.44;;;10.04;100.00
11011;BME280;5558;42.702;23.178;2023-05-20T01:08:58;93967.25;;;10.18;100.00
11011;BME280;5558;42.702;23.178;2023-05-20T01:11:28;93962.84;;;10.28;100.00
11011;BME280;5558;42.702;23.178;2023-05-20T01:14:01;93964.66;;;10.28;100.00
11011;BME280;5558;42.702;23.178;2023-05-20T01:16:30;93946.25;;;10.06;100.00
11011;BME280;5558;42.702;23.178;2023-05-20T01:18:58;93951.91;;;9.88;100.00
11011;BME280;5558;42.702;23.178;2023-05-20T01:21:29;93964.75;;;9.74;100.00
11011;BME280;5558;42.702;23.178;2023-05-20T01:23:57;93970.06;;;9.79;100.00
11011;BME280;5558;42.702;23.178;2023-05-20T01:26:26;93971.84;;;10.01;100.00
11011;BME280;5558;42.702;23.178;2023-05-20T01:28:53;93972.25;;;10.14;100.00
11011;BME280;5558;42.702;23.178;2023-05-20T01:31:23;93968.13;;;10.28;100.00
11011;BME280;5558;42.702;23.178;2023-05-20T01:33:55;93959.94;;;10.30;100.00
11011;BME280;5558;42.702;23.178;2023-05-20T01:36:22;93955.69;;;10.34;100.00
11011;BME280;5558;42.702;23.178;2023-05-20T01:38:52;93944.53;;;10.27;100.00
11011;BME280;5558;42.702;23.178;2023-05-20T01:41:22;93958.25;;;10.19;100.00
11011;BME280;5558;42.702;23.178;2023-05-20T01:43:51;93958.25;;;10.19;100.00
11011;BME280;5558;42.702;23.178;2023-05-20T01:46:17;93951.06;;;10.09;100.00
11011;BME280;5558;42.702;23.178;2023-05-20T01:48:44;93957.16;;;9.83;100.00
11011;BME280;5558;42.702;23.178;2023-05-20T01:51:12;93960.97;;;9.65;100.00
11011;BME280;5558;42.702;23.178;2023-05-20T01:53:39;93974.16;;;9.60;100.00
11011;BME280;5558;42.702;23.178;2023-05-20T01:56:05;93979.09;;;9.52;100.00
11011;BME280;5558;42.702;23.178;2023-05-20T01:58:33;93975.28;;;9.69;100.00
11011;BME280;5558;42.702;23.178;2023-05-20T02:01:00;93974.75;;;9.72;100.00
11011;BME280;5558;42.702;23.178;2023-05-20T02:03:27;93966.31;;;9.70;100.00
11011;BME280;5558;42.702;23.178;2023-05-20T02:05:54;93976.59;;;9.67;100.00
11011;BME280;5558;42.702;23.178;2023-05-20T02:08:21;93968.69;;;9.72;100.00
11011;BME280;5558;42.702;23.178;2023-05-20T02:10:48;93968.03;;;9.86;100.00
11011;BME280;5558;42.702;23.178;2023-05-20T02:13:14;93971.47;;;9.87;100.00
11011;BME280;5558;42.702;23.178;2023-05-20T02:15:42;93925.66;;;9.76;100.00
11011;BME280;5558;42.702;23.178;2023-05-20T02:18:09;93938.56;;;9.73;100.00
11011;BME280;5558;42.702;23.178;2023-05-20T02:20:37;93955.34;;;9.88;100.00
11011;BME280;5558;42.702;23.178;2023-05-20T02:23:03;93951.34;;;9.86;100.00
11011;BME280;5558;42.702;23.178;2023-05-20T02:25:30;93957.41;;;9.81;100.00
11011;BME280;5558;42.702;23.178;2023-05-20T02:27:57;93949.03;;;9.95;100.00
11011;BME280;5558;42.702;23.178;2023-05-20T02:30:25;93943.81;;;10.05;100.00
11011;BME280;5558;42.702;23.178;2023-05-20T02:32:54;93942.34;;;10.14;100.00
11011;BME280;5558;42.702;23.178;2023-05-20T02:35:22;93942.94;;;10.21;100.00
11011;BME280;5558;42.702;23.178;2023-05-20T02:37:48;93943.22;;;10.24;100.00
11011;BME280;5558;42.702;23.178;2023-05-20T02:40:16;93930.81;;;10.30;100.00
11011;BME280;5558;42.702;23.178;2023-05-20T02:42:42;93933.47;;;10.30;100.00
11011;BME280;5558;42.702;23.178;2023-05-20T02:45:09;93939.03;;;10.28;100.00
11011;BME280;5558;42.702;23.178;2023-05-20T02:47:36;93931.31;;;10.27;100.00
11011;BME280;5558;42.702;23.178;2023-05-20T02:50:05;93941.34;;;10.20;100.00
11011;BME280;5558;42.702;23.178;2023-05-20T02:52:33;93935.06;;;10.31;100.00
11011;BME280;5558;42.702;23.178;2023-05-20T02:55:00;93941.94;;;10.37;100.00
11011;BME280;5558;42.702;23.178;2023-05-20T02:57:27;93940.94;;;10.43;100.00
11011;BME280;5558;42.702;23.178;2023-05-20T02:59:54;93937.25;;;10.44;100.00
11011;BME280;5558;42.702;23.178;2023-05-20T03:02:21;93944.47;;;10.58;100.00
11011;BME280;5558;42.702;23.178;2023-05-20T03:04:49;93938.94;;;10.60;100.00
11011;BME280;5558;42.702;23.178;2023-05-20T03:07:19;93946.38;;;10.68;100.00
11011;BME280;5558;42.702;23.178;2023-05-20T03:09:46;93946.97;;;10.80;100.00
11011;BME280;5558;42.702;23.178;2023-05-20T03:12:13;93931.59;;;10.77;100.00
11011;BME280;5558;42.702;23.178;2023-05-20T03:14:40;93941.19;;;10.98;100.00
11011;BME280;5558;42.702;23.178;2023-05-20T03:17:07;93937.81;;;11.13;100.00
11011;BME280;5558;42.702;23.178;2023-05-20T03:19:34;93942.38;;;11.32;100.00
11011;BME280;5558;42.702;23.178;2023-05-20T03:22:01;93934.50;;;11.92;100.00
11011;BME280;5558;42.702;23.178;2023-05-20T03:24:29;93941.84;;;12.66;100.00
11011;BME280;5558;42.702;23.178;2023-05-20T03:26:56;93945.59;;;13.33;100.00
11011;BME280;5558;42.702;23.178;2023-05-20T03:29:23;93946.19;;;14.08;100.00
11011;BME280;5558;42.702;23.178;2023-05-20T03:31:49;93944.72;;;14.83;100.00
11011;BME280;5558;42.702;23.178;2023-05-20T03:34:16;93939.56;;;15.57;100.00
11011;BME280;5558;42.702;23.178;2023-05-20T03:36:43;93943.63;;;16.24;96.67
11011;BME280;5558;42.702;23.178;2023-05-20T03:39:10;93942.84;;;17.15;86.77
11011;BME280;5558;42.702;23.178;2023-05-20T03:41:38;93944.81;;;17.99;77.08
11011;BME280;5558;42.702;23.178;2023-05-20T03:44:05;93946.31;;;18.80;70.30
11011;BME280;5558;42.702;23.178;2023-05-20T03:46:31;93942.38;;;19.56;65.04
11011;BME280;5558;42.702;23.178;2023-05-20T03:48:58;93944.06;;;20.33;61.50
11011;BME280;5558;42.702;23.178;2023-05-20T03:51:26;93953.91;;;21.10;57.51
11011;BME280;5558;42.702;23.178;2023-05-20T03:53:53;93923.44;;;21.55;53.38
11011;BME280;5558;42.702;23.178;2023-05-20T03:56:19;93960.34;;;21.93;53.02
11011;BME280;5558;42.702;23.178;2023-05-20T03:58:47;93955.06;;;22.78;50.31
11011;BME280;5558;42.702;23.178;2023-05-20T04:01:14;93963.34;;;23.39;47.99
11011;BME280;5558;42.702;23.178;2023-05-20T04:03:42;93959.41;;;24.08;46.09
11011;BME280;5558;42.702;23.178;2023-05-20T04:06:08;93958.47;;;24.96;44.96
11011;BME280;5558;42.702;23.178;2023-05-20T04:08:35;93962.75;;;25.71;42.33
11011;BME280;5558;42.702;23.178;2023-05-20T04:11:02;93964.19;;;26.31;40.99
11011;BME280;5558;42.702;23.178;2023-05-20T04:13:29;93965.38;;;26.87;39.58
11011;BME280;5558;42.702;23.178;2023-05-20T04:15:57;93966.41;;;27.21;38.82
11011;BME280;5558;42.702;23.178;2023-05-20T04:18:24;93976.75;;;27.76;37.64
11011;BME280;5558;42.702;23.178;2023-05-20T04:20:54;93970.97;;;28.30;36.91
11011;BME280;5558;42.702;23.178;2023-05-20T04:23:21;93967.97;;;28.94;35.51
11011;BME280;5558;42.702;23.178;2023-05-20T04:25:48;93975.13;;;29.39;35.07
11011;BME280;5558;42.702;23.178;2023-05-20T04:28:14;93969.44;;;29.95;33.47
11011;BME280;5558;42.702;23.178;2023-05-20T04:30:41;93972.22;;;30.52;33.17
11011;BME280;5558;42.702;23.178;2023-05-20T04:33:10;93969.91;;;30.61;31.82
11011;BME280;5558;42.702;23.178;2023-05-20T04:35:39;93945.94;;;31.13;30.24
11011;BME280;5558;42.702;23.178;2023-05-20T04:38:06;93946.66;;;30.99;30.22
11011;BME280;5558;42.702;23.178;2023-05-20T04:40:33;93971.88;;;31.50;30.12
11011;BME280;5558;42.702;23.178;2023-05-20T04:42:59;93969.91;;;31.65;29.62
11011;BME280;5558;42.702;23.178;2023-05-20T04:45:26;93979.75;;;31.94;29.82
11011;BME280;5558;42.702;23.178;2023-05-20T04:47:53;93975.81;;;32.62;29.08
11011;BME280;5558;42.702;23.178;2023-05-20T04:50:21;93974.50;;;33.12;28.48
11011;BME280;5558;42.702;23.178;2023-05-20T04:52:48;93981.81;;;33.47;26.89
11011;BME280;5558;42.702;23.178;2023-05-20T04:55:14;93979.88;;;34.05;26.37
11011;BME280;5558;42.702;23.178;2023-05-20T04:57:41;93983.91;;;33.90;27.11
11011;BME280;5558;42.702;23.178;2023-05-20T05:00:09;93983.69;;;32.35;27.32
11011;BME280;5558;42.702;23.178;2023-05-20T05:02:36;93979.69;;;32.78;28.39
11011;BME280;5558;42.702;23.178;2023-05-20T05:05:04;93968.19;;;29.85;31.25
11011;BME280;5558;42.702;23.178;2023-05-20T05:07:32;93974.13;;;29.17;32.38
11011;BME280;5558;42.702;23.178;2023-05-20T05:09:59;93973.25;;;29.83;33.48
11011;BME280;5558;42.702;23.178;2023-05-20T05:12:25;93975.69;;;29.95;33.25
11011;BME280;5558;42.702;23.178;2023-05-20T05:14:52;93970.78;;;29.31;32.19
11011;BME280;5558;42.702;23.178;2023-05-20T05:17:19;93982.66;;;27.82;34.29
11011;BME280;5558;42.702;23.178;2023-05-20T05:19:45;93968.22;;;28.52;34.78
11011;BME280;5558;42.702;23.178;2023-05-20T05:22:12;93973.53;;;28.16;35.02
11011;BME280;5558;42.702;23.178;2023-05-20T05:24:40;93968.53;;;26.35;37.95
11011;BME280;5558;42.702;23.178;2023-05-20T05:27:06;93963.59;;;26.06;39.04
11011;BME280;5558;42.702;23.178;2023-05-20T05:29:33;93967.31;;;25.67;40.10
11011;BME280;5558;42.702;23.178;2023-05-20T05:32:00;93968.34;;;25.47;40.19
11011;BME280;5558;42.702;23.178;2023-05-20T05:34:27;93965.50;;;24.05;43.09
11011;BME280;5558;42.702;23.178;2023-05-20T05:36:53;93965.56;;;25.00;42.32
11011;BME280;5558;42.702;23.178;2023-05-20T05:39:20;93965.19;;;25.61;41.34
11011;BME280;5558;42.702;23.178;2023-05-20T05:41:48;93931.22;;;25.20;41.65
11011;BME280;5558;42.702;23.178;2023-05-20T05:44:15;93968.94;;;27.10;38.47
11011;BME280;5558;42.702;23.178;2023-05-20T05:46:42;93970.94;;;26.94;39.17
11011;BME280;5558;42.702;23.178;2023-05-20T05:49:09;93970.88;;;27.97;37.08
11011;BME280;5558;42.702;23.178;2023-05-20T05:51:36;93960.31;;;26.67;38.33
11011;BME280;5558;42.702;23.178;2023-05-20T05:54:02;93960.34;;;27.73;39.21
11011;BME280;5558;42.702;23.178;2023-05-20T05:56:29;93954.09;;;26.66;39.28
11011;BME280;5558;42.702;23.178;2023-05-20T05:58:57;93956.88;;;26.16;39.96
11011;BME280;5558;42.702;23.178;2023-05-20T06:01:24;93959.59;;;24.95;42.63
11011;BME280;5558;42.702;23.178;2023-05-20T06:03:51;93959.09;;;25.05;42.46
11011;BME280;5558;42.702;23.178;2023-05-20T06:06:18;93930.66;;;24.16;45.52
11011;BME280;5558;42.702;23.178;2023-05-20T06:08:44;93950.91;;;24.74;45.07
11011;BME280;5558;42.702;23.178;2023-05-20T06:11:11;93958.84;;;23.79;44.40
11011;BME280;5558;42.702;23.178;2023-05-20T06:13:38;93945.84;;;24.21;45.01
11011;BME280;5558;42.702;23.178;2023-05-20T06:16:06;93957.47;;;24.21;44.50
11011;BME280;5558;42.702;23.178;2023-05-20T06:18:33;93952.00;;;25.59;42.04
11011;BME280;5558;42.702;23.178;2023-05-20T06:20:59;93954.59;;;25.87;41.50
11011;BME280;5558;42.702;23.178;2023-05-20T06:23:26;93959.53;;;26.51;40.18
11011;BME280;5558;42.702;23.178;2023-05-20T06:25:56;93955.50;;;25.60;40.75
11011;BME280;5558;42.702;23.178;2023-05-20T06:28:24;93956.66;;;25.59;41.87
11011;BME280;5558;42.702;23.178;2023-05-20T06:30:51;93951.16;;;26.21;38.97
11011;BME280;5558;42.702;23.178;2023-05-20T06:33:21;93948.34;;;25.67;39.20
11011;BME280;5558;42.702;23.178;2023-05-20T06:35:50;93940.84;;;25.95;39.74
11011;BME280;5558;42.702;23.178;2023-05-20T06:38:17;93940.75;;;26.23;38.74
11011;BME280;5558;42.702;23.178;2023-05-20T06:40:43;93932.25;;;26.63;37.97
11011;BME280;5558;42.702;23.178;2023-05-20T06:43:10;93927.44;;;26.72;38.64
11011;BME280;5558;42.702;23.178;2023-05-20T06:45:37;93936.66;;;27.28;37.80
11011;BME280;5558;42.702;23.178;2023-05-20T06:48:04;93926.63;;;27.13;37.79
11011;BME280;5558;42.702;23.178;2023-05-20T06:50:32;93934.78;;;27.13;37.56
11011;BME280;5558;42.702;23.178;2023-05-20T06:52:59;93938.16;;;27.06;38.19
11011;BME280;5558;42.702;23.178;2023-05-20T06:55:26;93932.00;;;26.87;37.79
11011;BME280;5558;42.702;23.178;2023-05-20T06:57:53;93927.81;;;27.12;37.37
11011;BME280;5558;42.702;23.178;2023-05-20T07:00:20;93936.78;;;27.35;37.47
11011;BME280;5558;42.702;23.178;2023-05-20T07:02:46;93939.56;;;26.97;36.69
11011;BME280;5558;42.702;23.178;2023-05-20T07:05:13;93930.59;;;27.15;37.33
11011;BME280;5558;42.702;23.178;2023-05-20T07:07:41;93936.41;;;26.95;37.30
11011;BME280;5558;42.702;23.178;2023-05-20T07:10:08;93935.63;;;26.02;37.90
11011;BME280;5558;42.702;23.178;2023-05-20T07:12:35;93931.66;;;25.22;38.12
11011;BME280;5558;42.702;23.178;2023-05-20T07:15:01;93929.53;;;24.84;41.13
11011;BME280;5558;42.702;23.178;2023-05-20T07:17:28;93921.91;;;24.74;42.03
11011;BME280;5558;42.702;23.178;2023-05-20T07:19:55;93930.13;;;23.74;41.67
11011;BME280;5558;42.702;23.178;2023-05-20T07:22:21;93938.91;;;23.83;42.31
11011;BME280;5558;42.702;23.178;2023-05-20T07:24:49;93936.97;;;22.79;44.16
11011;BME280;5558;42.702;23.178;2023-05-20T07:27:16;93928.16;;;22.70;44.46
11011;BME280;5558;42.702;23.178;2023-05-20T07:29:43;93926.13;;;23.00;44.14
11011;BME280;5558;42.702;23.178;2023-05-20T07:32:09;93928.34;;;22.98;44.86
11011;BME280;5558;42.702;23.178;2023-05-20T07:34:36;93928.50;;;22.68;45.72
11011;BME280;5558;42.702;23.178;2023-05-20T07:37:04;93920.66;;;22.02;44.59
11011;BME280;5558;42.702;23.178;2023-05-20T07:39:30;93926.63;;;21.87;46.60
11011;BME280;5558;42.702;23.178;2023-05-20T07:41:58;93934.84;;;21.90;47.83
11011;BME280;5558;42.702;23.178;2023-05-20T07:44:25;93905.06;;;21.57;48.79
11011;BME280;5558;42.702;23.178;2023-05-20T07:46:52;93939.56;;;20.89;48.33
11011;BME280;5558;42.702;23.178;2023-05-20T07:49:18;93928.97;;;21.30;48.54
11011;BME280;5558;42.702;23.178;2023-05-20T07:51:45;93929.28;;;21.28;50.89
11011;BME280;5558;42.702;23.178;2023-05-20T07:54:12;93893.16;;;21.58;48.04
11011;BME280;5558;42.702;23.178;2023-05-20T07:56:39;93921.88;;;21.84;45.76
11011;BME280;5558;42.702;23.178;2023-05-20T07:59:07;93921.25;;;21.20;46.36
11011;BME280;5558;42.702;23.178;2023-05-20T08:01:34;93920.88;;;21.30;45.89
11011;BME280;5558;42.702;23.178;2023-05-20T08:04:01;93919.38;;;21.78;46.57
11011;BME280;5558;42.702;23.178;2023-05-20T08:06:28;93914.53;;;22.34;46.29
11011;BME280;5558;42.702;23.178;2023-05-20T08:08:56;93911.50;;;22.15;45.72
11011;BME280;5558;42.702;23.178;2023-05-20T08:11:22;93913.97;;;21.78;46.76
11011;BME280;5558;42.702;23.178;2023-05-20T08:13:49;93905.00;;;20.91;51.04
11011;BME280;5558;42.702;23.178;2023-05-20T08:16:17;93901.97;;;21.09;52.20
11011;BME280;5558;42.702;23.178;2023-05-20T08:18:44;93911.03;;;20.96;50.96
11011;BME280;5558;42.702;23.178;2023-05-20T08:21:11;93898.13;;;20.73;48.46
11011;BME280;5558;42.702;23.178;2023-05-20T08:23:38;93898.66;;;20.49;55.20
11011;BME280;5558;42.702;23.178;2023-05-20T08:26:05;93908.63;;;20.40;51.04
11011;BME280;5558;42.702;23.178;2023-05-20T08:28:31;93907.22;;;20.25;52.81
11011;BME280;5558;42.702;23.178;2023-05-20T08:31:00;93887.72;;;20.54;51.87
11011;BME280;5558;42.702;23.178;2023-05-20T08:33:28;93907.34;;;20.63;51.24
11011;BME280;5558;42.702;23.178;2023-05-20T08:35:55;93902.50;;;20.22;53.16
11011;BME280;5558;42.702;23.178;2023-05-20T08:38:21;93894.91;;;20.24;54.12
11011;BME280;5558;42.702;23.178;2023-05-20T08:40:50;93894.41;;;20.31;54.85
11011;BME280;5558;42.702;23.178;2023-05-20T08:43:18;93888.06;;;20.44;57.23
11011;BME280;5558;42.702;23.178;2023-05-20T08:45:45;93892.97;;;20.25;54.66
11011;BME280;5558;42.702;23.178;2023-05-20T08:48:12;93903.06;;;20.45;54.70
11011;BME280;5558;42.702;23.178;2023-05-20T08:50:41;93894.91;;;20.16;56.44
11011;BME280;5558;42.702;23.178;2023-05-20T08:53:07;93901.66;;;19.88;54.65
11011;BME280;5558;42.702;23.178;2023-05-20T08:55:37;93900.72;;;20.18;53.95
11011;BME280;5558;42.702;23.178;2023-05-20T08:58:08;93902.47;;;20.39;53.67
11011;BME280;5558;42.702;23.178;2023-05-20T09:00:34;93888.06;;;20.44;54.19
11011;BME280;5558;42.702;23.178;2023-05-20T09:03:03;93903.09;;;20.19;52.43
11011;BME280;5558;42.702;23.178;2023-05-20T09:05:30;93895.69;;;20.16;58.19
11011;BME280;5558;42.702;23.178;2023-05-20T09:08:05;93897.41;;;20.12;57.58
11011;BME280;5558;42.702;23.178;2023-05-20T09:10:32;93887.75;;;20.28;57.71
11011;BME280;5558;42.702;23.178;2023-05-20T09:12:59;93881.59;;;20.19;57.08
11011;BME280;5558;42.702;23.178;2023-05-20T09:15:27;93882.41;;;20.20;60.26
11011;BME280;5558;42.702;23.178;2023-05-20T09:17:54;93874.97;;;20.17;56.42
11011;BME280;5558;42.702;23.178;2023-05-20T09:20:21;93874.78;;;20.30;58.42
11011;BME280;5558;42.702;23.178;2023-05-20T09:22:50;93846.34;;;20.12;59.61
11011;BME280;5558;42.702;23.178;2023-05-20T09:25:19;93895.97;;;20.40;53.87
11011;BME280;5558;42.702;23.178;2023-05-20T09:27:47;93869.56;;;20.42;55.31
11011;BME280;5558;42.702;23.178;2023-05-20T09:30:14;93871.09;;;20.60;53.94
11011;BME280;5558;42.702;23.178;2023-05-20T09:32:40;93876.69;;;20.21;57.85
11011;BME280;5558;42.702;23.178;2023-05-20T09:35:07;93879.84;;;20.32;53.74
11011;BME280;5558;42.702;23.178;2023-05-20T09:37:34;93876.38;;;20.23;55.95
11011;BME280;5558;42.702;23.178;2023-05-20T09:40:03;93874.91;;;20.51;54.54
11011;BME280;5558;42.702;23.178;2023-05-20T09:42:38;93879.97;;;20.61;57.90
11011;BME280;5558;42.702;23.178;2023-05-20T09:45:06;93846.78;;;20.40;51.43
11011;BME280;5558;42.702;23.178;2023-05-20T09:47:36;93870.22;;;20.39;53.61
11011;BME280;5558;42.702;23.178;2023-05-20T09:50:06;93873.78;;;20.60;51.68
11011;BME280;5558;42.702;23.178;2023-05-20T09:52:34;93861.16;;;20.52;49.79
11011;BME280;5558;42.702;23.178;2023-05-20T09:55:01;93856.13;;;20.34;52.49
11011;BME280;5558;42.702;23.178;2023-05-20T09:57:30;93858.59;;;20.65;52.10
11011;BME280;5558;42.702;23.178;2023-05-20T10:00:01;93856.56;;;20.99;56.26
11011;BME280;5558;42.702;23.178;2023-05-20T10:02:29;93833.38;;;20.78;59.06
11011;BME280;5558;42.702;23.178;2023-05-20T10:04:58;93854.53;;;20.41;54.91
11011;BME280;5558;42.702;23.178;2023-05-20T10:07:42;93858.63;;;20.47;54.84
11011;BME280;5558;42.702;23.178;2023-05-20T10:10:23;93845.78;;;20.62;57.12
11011;BME280;5558;42.702;23.178;2023-05-20T10:13:02;93852.75;;;21.09;54.53
11011;BME280;5558;42.702;23.178;2023-05-20T10:15:50;93837.53;;;21.04;50.77
11011;BME280;5558;42.702;23.178;2023-05-20T10:18:32;93801.13;;;20.69;54.16
11011;BME280;5558;42.702;23.178;2023-05-20T10:21:02;93827.50;;;20.76;54.25
11011;BME280;5558;42.702;23.178;2023-05-20T10:23:29;93824.81;;;20.76;57.92
11011;BME280;5558;42.702;23.178;2023-05-20T10:25:57;93827.13;;;20.94;54.46
11011;BME280;5558;42.702;23.178;2023-05-20T10:28:27;93824.31;;;20.44;50.89
11011;BME280;5558;42.702;23.178;2023-05-20T10:30:57;93821.16;;;20.42;51.65
11011;BME280;5558;42.702;23.178;2023-05-20T10:33:24;93817.59;;;20.68;56.15
11011;BME280;5558;42.702;23.178;2023-05-20T10:35:52;93804.94;;;20.68;53.15
11011;BME280;5558;42.702;23.178;2023-05-20T10:38:20;93790.22;;;21.03;54.77
11011;BME280;5558;42.702;23.178;2023-05-20T10:40:46;93809.75;;;21.21;48.96
11011;BME280;5558;42.702;23.178;2023-05-20T10:43:14;93796.69;;;21.02;52.88
11011;BME280;5558;42.702;23.178;2023-05-20T10:45:48;93793.56;;;21.00;55.00
11011;BME280;5558;42.702;23.178;2023-05-20T10:48:23;93810.09;;;20.82;48.90
11011;BME280;5558;42.702;23.178;2023-05-20T10:50:52;93805.66;;;20.77;49.36
11011;BME280;5558;42.702;23.178;2023-05-20T10:53:21;93793.66;;;21.12;52.09
11011;BME280;5558;42.702;23.178;2023-05-20T10:55:50;93781.06;;;21.25;54.82
11011;BME280;5558;42.702;23.178;2023-05-20T10:58:17;93774.72;;;21.00;50.29
11011;BME280;5558;42.702;23.178;2023-05-20T11:00:44;93784.00;;;21.32;50.04
11011;BME280;5558;42.702;23.178;2023-05-20T11:03:14;93782.56;;;21.14;48.45
11011;BME280;5558;42.702;23.178;2023-05-20T11:05:44;93781.22;;;20.99;50.66
11011;BME280;5558;42.702;23.178;2023-05-20T11:08:11;93777.44;;;20.54;49.78
11011;BME280;5558;42.702;23.178;2023-05-20T11:10:38;93773.63;;;20.55;48.75
11011;BME280;5558;42.702;23.178;2023-05-20T11:13:05;93738.84;;;20.50;48.47
11011;BME280;5558;42.702;23.178;2023-05-20T11:15:33;93791.25;;;20.82;49.77
11011;BME280;5558;42.702;23.178;2023-05-20T11:18:02;93774.00;;;20.45;49.59
11011;BME280;5558;42.702;23.178;2023-05-20T11:20:29;93775.84;;;20.62;49.26
11011;BME280;5558;42.702;23.178;2023-05-20T11:23:01;93762.69;;;20.98;51.80
11011;BME280;5558;42.702;23.178;2023-05-20T11:25:28;93749.41;;;20.93;49.61
11011;BME280;5558;42.702;23.178;2023-05-20T11:27:55;93752.78;;;20.52;46.54
11011;BME280;5558;42.702;23.178;2023-05-20T11:30:22;93751.16;;;20.13;49.57
11011;BME280;5558;42.702;23.178;2023-05-20T11:32:56;93753.50;;;20.70;50.75
11011;BME280;5558;42.702;23.178;2023-05-20T11:35:24;93755.66;;;20.47;48.10
11011;BME280;5558;42.702;23.178;2023-05-20T11:38:02;93732.53;;;20.54;50.09
11011;BME280;5558;42.702;23.178;2023-05-20T11:40:30;93750.84;;;20.61;49.06
11011;BME280;5558;42.702;23.178;2023-05-20T11:42:58;93736.22;;;20.71;48.78
11011;BME280;5558;42.702;23.178;2023-05-20T11:45:25;93734.56;;;20.57;49.53
11011;BME280;5558;42.702;23.178;2023-05-20T11:48:00;93745.19;;;20.54;49.46
11011;BME280;5558;42.702;23.178;2023-05-20T11:50:32;93757.44;;;20.34;49.07
11011;BME280;5558;42.702;23.178;2023-05-20T11:53:01;93736.16;;;20.04;48.89
11011;BME280;5558;42.702;23.178;2023-05-20T11:55:30;93740.16;;;19.81;49.55
11011;BME280;5558;42.702;23.178;2023-05-20T11:57:57;93740.13;;;19.98;52.08
11011;BME280;5558;42.702;23.178;2023-05-20T12:00:24;93712.16;;;20.45;52.53
11011;BME280;5558;42.702;23.178;2023-05-20T12:02:51;93732.91;;;20.44;52.43
11011;BME280;5558;42.702;23.178;2023-05-20T12:05:18;93735.91;;;20.72;49.58
11011;BME280;5558;42.702;23.178;2023-05-20T12:07:45;93714.66;;;20.79;49.72
11011;BME280;5558;42.702;23.178;2023-05-20T12:10:12;93730.06;;;20.70;47.62
11011;BME280;5558;42.702;23.178;2023-05-20T12:12:40;93692.88;;;20.93;48.56
11011;BME280;5558;42.702;23.178;2023-05-20T12:15:09;93718.78;;;21.06;47.88
11011;BME280;5558;42.702;23.178;2023-05-20T12:17:44;93699.31;;;21.09;50.42
11011;BME280;5558;42.702;23.178;2023-05-20T12:20:12;93712.81;;;20.71;49.21
11011;BME280;5558;42.702;23.178;2023-05-20T12:22:40;93731.13;;;20.48;49.77
11011;BME280;5558;42.702;23.178;2023-05-20T12:25:07;93709.09;;;20.55;51.51
11011;BME280;5558;42.702;23.178;2023-05-20T12:27:34;93721.38;;;20.35;49.29
11011;BME280;5558;42.702;23.178;2023-05-20T12:30:02;93715.03;;;19.94;51.67
11011;BME280;5558;42.702;23.178;2023-05-20T12:32:29;93713.66;;;20.25;51.42
11011;BME280;5558;42.702;23.178;2023-05-20T12:34:56;93711.78;;;20.55;50.47
11011;BME280;5558;42.702;23.178;2023-05-20T12:37:22;93720.13;;;20.91;49.71
11011;BME280;5558;42.702;23.178;2023-05-20T12:39:49;93711.22;;;20.70;48.21
11011;BME280;5558;42.702;23.178;2023-05-20T12:42:16;93718.06;;;20.30;48.20
11011;BME280;5558;42.702;23.178;2023-05-20T12:44:43;93720.19;;;20.16;50.53
11011;BME280;5558;42.702;23.178;2023-05-20T12:47:11;93718.16;;;19.96;52.83
11011;BME280;5558;42.702;23.178;2023-05-20T12:49:38;93729.88;;;19.91;51.32
11011;BME280;5558;42.702;23.178;2023-05-20T12:52:05;93759.94;;;19.42;55.04
11011;BME280;5558;42.702;23.178;2023-05-20T12:54:32;93745.22;;;18.41;59.04
11011;BME280;5558;42.702;23.178;2023-05-20T12:56:58;93741.41;;;17.72;59.67
11011;BME280;5558;42.702;23.178;2023-05-20T12:59:25;93735.88;;;17.46;61.69